createdAt,value
2018-10-17T00:01:04.889Z,99.90
2018-10-17T00:03:33.511Z,99.90
2018-10-17T00:06:02.096Z,99.90
2018-10-17T00:08:30.694Z,99.90
2018-10-17T00:10:59.336Z,99.90
2018-10-17T00:13:27.946Z,99.90
2018-10-17T00:15:56.698Z,99.90
2018-10-17T00:18:25.592Z,99.90
2018-10-17T00:20:54.489Z,99.90
2018-10-17T00:23:23.404Z,99.90
2018-10-17T00:25:52.282Z,99.90
2018-10-17T00:28:21.529Z,99.90
2018-10-17T00:30:50.486Z,99.90
2018-10-17T00:33:19.293Z,99.90
2018-10-17T00:35:48.127Z,99.90
2018-10-17T00:38:16.953Z,99.90
2018-10-17T00:40:45.604Z,99.90
2018-10-17T00:43:14.253Z,99.90
2018-10-17T00:45:42.923Z,99.90
2018-10-17T00:48:11.699Z,99.90
2018-10-17T00:50:40.395Z,99.90
2018-10-17T00:53:09.100Z,99.90
2018-10-17T00:55:37.608Z,99.90
2018-10-17T00:58:06.387Z,99.90
2018-10-17T01:00:35.006Z,99.90
2018-10-17T01:03:03.654Z,99.90
2018-10-17T01:05:32.234Z,99.90
2018-10-17T01:08:00.889Z,99.90
2018-10-17T01:10:29.486Z,99.90
2018-10-17T01:12:58.107Z,99.90
2018-10-17T01:15:26.705Z,99.90
2018-10-17T01:17:55.590Z,99.90
2018-10-17T01:20:24.378Z,99.90
2018-10-17T01:22:53.173Z,99.90
2018-10-17T01:25:21.986Z,99.90
2018-10-17T01:27:50.756Z,99.90
2018-10-17T01:30:19.784Z,99.90
2018-10-17T01:32:48.624Z,99.90
2018-10-17T01:35:17.489Z,99.90
2018-10-17T01:37:46.160Z,99.90
2018-10-17T01:40:14.838Z,99.90
2018-10-17T01:42:43.466Z,99.90
2018-10-17T01:45:12.271Z,99.90
2018-10-17T01:47:40.892Z,99.90
2018-10-17T01:50:09.797Z,99.90
2018-10-17T01:52:38.389Z,99.90
2018-10-17T01:55:07.775Z,99.90
2018-10-17T01:57:36.723Z,99.90
2018-10-17T02:00:05.635Z,99.90
2018-10-17T02:02:34.222Z,99.90
2018-10-17T02:05:02.961Z,99.90
2018-10-17T02:07:31.470Z,99.90
2018-10-17T02:10:00.043Z,99.90
2018-10-17T02:12:28.738Z,99.90
2018-10-17T02:14:57.620Z,99.90
2018-10-17T02:17:26.343Z,99.90
2018-10-17T02:19:55.142Z,99.90
2018-10-17T02:22:23.942Z,99.90
2018-10-17T02:24:52.787Z,99.90
2018-10-17T02:27:21.505Z,99.90
2018-10-17T02:29:50.451Z,99.90
2018-10-17T02:32:19.323Z,99.90
2018-10-17T02:34:53.660Z,99.90
2018-10-17T02:37:22.352Z,99.90
2018-10-17T02:39:51.244Z,99.90
2018-10-17T02:42:20.155Z,99.90
2018-10-17T02:44:49.078Z,99.90
2018-10-17T02:47:17.753Z,99.90
2018-10-17T02:49:46.524Z,99.90
2018-10-17T02:52:15.127Z,99.90
2018-10-17T02:54:43.750Z,99.90
2018-10-17T02:57:12.575Z,99.90
2018-10-17T02:59:41.163Z,99.90
2018-10-17T03:02:09.847Z,99.90
2018-10-17T03:04:38.505Z,99.90
2018-10-17T03:07:07.329Z,99.90
2018-10-17T03:09:35.882Z,99.90
2018-10-17T03:12:04.561Z,99.90
2018-10-17T03:14:33.150Z,99.90
2018-10-17T03:17:01.752Z,99.90
2018-10-17T03:19:30.355Z,99.90
2018-10-17T03:21:59.007Z,99.90
2018-10-17T03:24:27.641Z,99.90
2018-10-17T03:26:56.406Z,99.90
2018-10-17T03:29:25.179Z,99.90
2018-10-17T03:31:53.933Z,99.90
2018-10-17T03:34:22.902Z,99.90
2018-10-17T03:36:51.765Z,99.90
2018-10-17T03:39:20.749Z,99.90
2018-10-17T03:41:49.711Z,99.90
2018-10-17T03:44:18.547Z,99.90
2018-10-17T03:46:47.337Z,99.90
2018-10-17T03:49:16.165Z,99.90
2018-10-17T03:51:44.762Z,99.90
2018-10-17T03:54:13.510Z,99.90
2018-10-17T03:56:42.334Z,99.90
2018-10-17T03:59:11.071Z,99.90
2018-10-17T04:01:39.748Z,99.90
2018-10-17T04:04:08.549Z,99.90
2018-10-17T04:06:37.165Z,99.90
2018-10-17T04:09:07.369Z,99.90
2018-10-17T04:11:35.971Z,99.90
2018-10-17T04:14:04.831Z,99.90
2018-10-17T04:16:33.448Z,99.90
2018-10-17T04:19:02.098Z,99.90
2018-10-17T04:21:30.672Z,99.90
2018-10-17T04:23:59.403Z,99.90
2018-10-17T04:26:28.234Z,99.90
2018-10-17T04:28:56.983Z,99.90
2018-10-17T04:31:25.775Z,99.90
2018-10-17T04:33:54.576Z,99.90
2018-10-17T04:36:23.425Z,99.90
2018-10-17T04:38:52.281Z,99.90
2018-10-17T04:41:21.188Z,99.90
2018-10-17T04:43:50.177Z,99.90
2018-10-17T04:46:19.160Z,99.90
2018-10-17T04:48:47.931Z,99.90
2018-10-17T04:51:16.774Z,99.90
2018-10-17T04:53:45.474Z,99.90
2018-10-17T04:56:14.116Z,99.90
2018-10-17T04:58:42.921Z,99.90
2018-10-17T05:01:11.723Z,99.90
2018-10-17T05:03:40.349Z,99.90
2018-10-17T05:06:09.106Z,99.90
2018-10-17T05:08:37.843Z,99.90
2018-10-17T05:11:06.698Z,99.90
2018-10-17T05:13:35.266Z,99.90
2018-10-17T05:16:03.874Z,99.90
2018-10-17T05:18:32.499Z,99.90
2018-10-17T05:21:01.077Z,99.90
2018-10-17T05:23:29.690Z,99.90
2018-10-17T05:25:58.323Z,99.90
2018-10-17T05:28:27.420Z,99.90
2018-10-17T05:30:56.426Z,99.90
2018-10-17T05:33:25.195Z,99.90
2018-10-17T05:35:53.959Z,99.90
2018-10-17T05:38:22.659Z,99.90
2018-10-17T05:40:51.668Z,99.90
2018-10-17T05:43:21.112Z,99.90
2018-10-17T05:45:50.207Z,99.90
2018-10-17T05:48:19.237Z,99.90
2018-10-17T05:50:48.362Z,99.90
2018-10-17T05:53:17.045Z,99.90
2018-10-17T05:55:45.927Z,99.90
2018-10-17T05:58:14.612Z,99.90
2018-10-17T06:00:43.286Z,99.90
2018-10-17T06:03:11.874Z,99.90
2018-10-17T06:05:40.564Z,99.90
2018-10-17T06:08:09.188Z,99.90
2018-10-17T06:10:37.786Z,99.90
2018-10-17T06:13:06.544Z,99.90
2018-10-17T06:15:35.127Z,99.90
2018-10-17T06:18:03.733Z,99.90
2018-10-17T06:20:32.323Z,99.90
2018-10-17T06:23:00.961Z,99.90
2018-10-17T06:25:29.534Z,99.90
2018-10-17T06:27:58.259Z,99.90
2018-10-17T06:30:27.067Z,99.90
2018-10-17T06:32:55.680Z,99.90
2018-10-17T06:35:24.343Z,99.90
2018-10-17T06:37:53.154Z,99.90
2018-10-17T06:40:22.119Z,99.90
2018-10-17T06:42:50.846Z,99.90
2018-10-17T06:45:19.658Z,99.90
2018-10-17T06:47:48.863Z,99.90
2018-10-17T06:50:17.583Z,99.90
2018-10-17T06:52:46.265Z,99.90
2018-10-17T06:55:14.977Z,99.90
2018-10-17T06:57:43.610Z,99.90
2018-10-17T07:00:12.413Z,99.90
2018-10-17T07:02:41.195Z,99.90
2018-10-17T07:05:11.338Z,99.90
2018-10-17T07:07:40.423Z,99.90
2018-10-17T07:10:09.359Z,99.90
2018-10-17T07:12:38.223Z,99.90
2018-10-17T07:15:07.591Z,99.90
2018-10-17T07:17:36.594Z,99.90
2018-10-17T07:20:06.364Z,99.90
2018-10-17T07:22:35.103Z,99.90
2018-10-17T07:25:03.954Z,99.90
2018-10-17T07:27:32.598Z,99.90
2018-10-17T07:30:01.258Z,99.90
2018-10-17T07:32:30.063Z,99.90
2018-10-17T07:34:58.856Z,99.90
2018-10-17T07:37:27.619Z,99.90
2018-10-17T07:39:56.354Z,99.90
2018-10-17T07:42:25.144Z,99.90
2018-10-17T07:44:54.020Z,99.90
2018-10-17T07:47:23.145Z,99.90
2018-10-17T07:49:52.216Z,99.90
2018-10-17T07:52:21.200Z,99.90
2018-10-17T07:54:50.086Z,99.90
2018-10-17T07:57:19.068Z,99.90
2018-10-17T07:59:48.110Z,99.90
2018-10-17T08:02:17.087Z,99.90
2018-10-17T08:04:45.784Z,99.90
2018-10-17T08:07:15.691Z,99.90
2018-10-17T08:09:44.492Z,99.90
2018-10-17T08:12:13.293Z,99.90
2018-10-17T08:14:42.700Z,99.90
2018-10-17T08:17:13.641Z,99.90
2018-10-17T08:19:49.184Z,99.90
2018-10-17T08:22:17.959Z,99.90
2018-10-17T08:24:46.750Z,99.90
2018-10-17T08:27:15.388Z,99.90
2018-10-17T08:29:44.185Z,99.90
2018-10-17T08:32:12.811Z,99.90
2018-10-17T08:34:41.664Z,99.90
2018-10-17T08:37:10.524Z,99.90
2018-10-17T08:39:39.830Z,99.90
2018-10-17T08:42:08.461Z,99.90
2018-10-17T08:44:37.075Z,99.90
2018-10-17T08:47:06.010Z,99.90
2018-10-17T08:49:34.624Z,99.90
2018-10-17T08:52:03.217Z,99.90
2018-10-17T08:54:31.864Z,99.90
2018-10-17T08:57:00.470Z,99.90
2018-10-17T08:59:29.122Z,99.90
2018-10-17T09:01:58.059Z,99.90
2018-10-17T09:04:27.050Z,99.90
2018-10-17T09:06:55.636Z,99.90
2018-10-17T09:09:24.349Z,99.90
2018-10-17T09:11:53.185Z,99.90
2018-10-17T09:14:21.872Z,99.90
2018-10-17T09:16:50.771Z,99.90
2018-10-17T09:19:19.687Z,99.90
2018-10-17T09:21:48.950Z,99.90
2018-10-17T09:24:17.665Z,99.90
2018-10-17T09:26:46.620Z,99.90
2018-10-17T09:29:15.277Z,99.90
2018-10-17T09:31:44.007Z,99.90
2018-10-17T09:34:12.822Z,99.90
2018-10-17T09:36:41.516Z,99.90
2018-10-17T09:39:11.840Z,99.90
2018-10-17T09:41:40.901Z,99.90
2018-10-17T09:44:09.703Z,99.90
2018-10-17T09:46:38.579Z,99.90
2018-10-17T09:49:07.168Z,99.90
2018-10-17T09:51:35.783Z,99.90
2018-10-17T09:54:04.432Z,99.90
2018-10-17T09:56:33.055Z,99.90
2018-10-17T09:59:01.659Z,99.90
2018-10-17T10:01:34.242Z,99.90
2018-10-17T10:04:02.956Z,99.90
2018-10-17T10:06:31.512Z,99.90
2018-10-17T10:09:00.299Z,99.90
2018-10-17T10:11:28.948Z,99.90
2018-10-17T10:13:57.878Z,99.90
2018-10-17T10:16:26.643Z,99.90
2018-10-17T10:18:55.537Z,99.90
2018-10-17T10:21:24.423Z,99.90
2018-10-17T10:23:53.325Z,99.90
2018-10-17T10:26:22.149Z,99.90
2018-10-17T10:28:51.122Z,99.90
2018-10-17T10:31:20.143Z,99.90
2018-10-17T10:33:49.533Z,99.90
2018-10-17T10:36:18.622Z,99.90
2018-10-17T10:38:47.448Z,99.90
2018-10-17T10:41:16.190Z,99.90
2018-10-17T10:43:44.804Z,99.90
2018-10-17T10:46:13.422Z,99.90
2018-10-17T10:48:42.134Z,99.90
2018-10-17T10:51:10.781Z,99.90
2018-10-17T10:53:39.611Z,99.90
2018-10-17T10:56:08.314Z,99.90
2018-10-17T10:58:37.109Z,99.90
2018-10-17T11:01:05.753Z,99.90
2018-10-17T11:03:34.378Z,99.90
2018-10-17T11:06:03.014Z,99.90
2018-10-17T11:08:32.449Z,99.90
2018-10-17T11:11:01.196Z,99.90
2018-10-17T11:13:29.732Z,99.90
2018-10-17T11:15:58.507Z,99.90
2018-10-17T11:18:27.312Z,99.90
2018-10-17T11:20:56.075Z,99.90
2018-10-17T11:23:24.980Z,99.90
2018-10-17T11:25:53.963Z,99.90
2018-10-17T11:28:23.133Z,99.90
2018-10-17T11:30:52.370Z,99.90
2018-10-17T11:33:21.458Z,99.90
2018-10-17T11:35:50.270Z,99.90
2018-10-17T11:38:19.294Z,99.90
2018-10-17T11:40:49.120Z,99.90
2018-10-17T11:43:18.010Z,99.90
2018-10-17T11:45:46.753Z,99.90
2018-10-17T11:48:15.384Z,99.90
2018-10-17T11:50:44.008Z,99.90
2018-10-17T11:53:12.691Z,99.90
2018-10-17T11:55:41.653Z,99.90
2018-10-17T11:58:10.513Z,99.90
2018-10-17T12:00:39.233Z,99.90
2018-10-17T12:03:07.912Z,99.90
2018-10-17T12:05:36.908Z,99.90
2018-10-17T12:08:05.217Z,99.70
2018-10-17T12:10:33.816Z,99.20
2018-10-17T12:13:02.583Z,99.60
2018-10-17T12:15:31.190Z,98.50
2018-10-17T12:17:59.857Z,99.30
2018-10-17T12:20:28.499Z,99.00
2018-10-17T12:22:57.203Z,97.80
2018-10-17T12:25:25.997Z,97.30
2018-10-17T12:27:54.903Z,96.80
2018-10-17T12:30:23.689Z,96.80
2018-10-17T12:32:52.673Z,96.50
2018-10-17T12:35:21.539Z,97.50
2018-10-17T12:37:50.438Z,97.00
2018-10-17T12:40:19.451Z,98.40
2018-10-17T12:42:48.368Z,97.70
2018-10-17T12:45:17.350Z,96.10
2018-10-17T12:47:45.812Z,97.10
2018-10-17T12:50:14.655Z,96.70
2018-10-17T12:52:43.336Z,98.00
2018-10-17T12:55:11.955Z,96.40
2018-10-17T12:57:40.551Z,97.40
2018-10-17T13:00:10.201Z,97.50
2018-10-17T13:02:44.425Z,97.70
2018-10-17T13:05:13.245Z,97.60
2018-10-17T13:07:41.784Z,97.80
2018-10-17T13:10:11.298Z,98.50
2018-10-17T13:12:40.627Z,98.40
2018-10-17T13:15:12.307Z,99.10
2018-10-17T13:17:41.084Z,99.90
2018-10-17T13:20:09.799Z,99.50
2018-10-17T13:22:38.549Z,99.10
2018-10-17T13:25:07.619Z,99.10
2018-10-17T13:27:36.161Z,99.90
2018-10-17T13:30:06.016Z,99.10
2018-10-17T13:32:34.620Z,99.90
2018-10-17T13:35:03.370Z,97.80
2018-10-17T13:37:31.920Z,98.90
2018-10-17T13:40:00.617Z,99.90
2018-10-17T13:42:29.205Z,99.60
2018-10-17T13:44:57.844Z,99.20
2018-10-17T13:47:26.611Z,99.40
2018-10-17T13:49:56.446Z,97.90
2018-10-17T13:52:25.333Z,98.00
2018-10-17T13:54:54.294Z,96.70
2018-10-17T13:57:22.956Z,96.40
2018-10-17T13:59:51.718Z,96.80
2018-10-17T14:02:20.558Z,97.00
2018-10-17T14:04:53.604Z,96.40
2018-10-17T14:07:23.246Z,96.20
2018-10-17T14:09:52.615Z,96.80
2018-10-17T14:12:21.996Z,97.40
2018-10-17T14:15:00.477Z,96.70
2018-10-17T14:17:29.110Z,96.40
2018-10-17T14:19:57.713Z,96.50
2018-10-17T14:22:26.446Z,96.60
2018-10-17T14:24:55.075Z,96.40
2018-10-17T14:27:23.810Z,97.20
2018-10-17T14:29:52.546Z,98.00
2018-10-17T14:32:21.358Z,97.20
2018-10-17T14:34:50.179Z,97.00
2018-10-17T14:37:19.028Z,97.10
2018-10-17T14:39:47.821Z,97.60
2018-10-17T14:42:17.844Z,97.10
2018-10-17T14:44:46.457Z,97.50
2018-10-17T14:47:15.063Z,97.70
2018-10-17T14:49:43.652Z,98.30
2018-10-17T14:52:12.247Z,98.20
2018-10-17T14:54:40.826Z,98.20
2018-10-17T14:57:09.548Z,98.80
2018-10-17T14:59:38.250Z,99.40
2018-10-17T15:02:07.084Z,99.90
2018-10-17T15:04:35.679Z,99.90
2018-10-17T15:07:04.327Z,99.90
2018-10-17T15:09:32.918Z,99.90
2018-10-17T15:12:01.550Z,99.90
2018-10-17T15:14:30.143Z,99.90
2018-10-17T15:16:58.816Z,99.90
2018-10-17T15:19:27.398Z,99.90
2018-10-17T15:21:56.023Z,99.90
2018-10-17T15:24:24.804Z,99.90
2018-10-17T15:26:53.565Z,99.90
2018-10-17T15:29:22.331Z,99.90
2018-10-17T15:31:51.231Z,99.90
2018-10-17T15:34:19.989Z,99.90
2018-10-17T15:36:49.044Z,99.90
2018-10-17T15:39:17.893Z,99.90
2018-10-17T15:41:46.626Z,99.90
2018-10-17T15:44:15.249Z,99.90
2018-10-17T15:46:43.893Z,99.90
2018-10-17T15:49:12.538Z,99.90
2018-10-17T15:51:41.146Z,99.90
2018-10-17T15:54:09.892Z,99.90
2018-10-17T15:56:38.648Z,99.90
2018-10-17T15:59:07.461Z,99.90
2018-10-17T16:01:36.117Z,99.90
2018-10-17T16:04:05.791Z,99.90
2018-10-17T16:06:34.373Z,99.90
2018-10-17T16:09:03.092Z,99.90
2018-10-17T16:11:31.691Z,99.90
2018-10-17T16:14:00.352Z,99.90
2018-10-17T16:16:28.918Z,99.90
2018-10-17T16:18:57.546Z,99.90
2018-10-17T16:21:26.346Z,99.90
2018-10-17T16:23:55.074Z,99.90
2018-10-17T16:26:23.758Z,99.90
2018-10-17T16:28:52.590Z,99.90
2018-10-17T16:31:21.565Z,99.90
2018-10-17T16:33:50.427Z,99.90
2018-10-17T16:36:19.537Z,99.90
2018-10-17T16:38:48.238Z,99.90
2018-10-17T16:41:16.973Z,99.90
2018-10-17T16:43:45.641Z,99.90
2018-10-17T16:46:14.348Z,99.90
2018-10-17T16:48:43.150Z,99.90
2018-10-17T16:51:11.739Z,99.90
2018-10-17T16:53:40.386Z,99.90
2018-10-17T16:56:09.322Z,99.90
2018-10-17T16:58:38.143Z,99.90
2018-10-17T17:01:07.534Z,99.90
2018-10-17T17:03:36.282Z,99.90
2018-10-17T17:06:04.974Z,99.90
2018-10-17T17:08:33.526Z,99.90
2018-10-17T17:11:02.165Z,99.90
2018-10-17T17:13:30.776Z,99.90
2018-10-17T17:15:59.374Z,99.90
2018-10-17T17:18:27.967Z,99.90
2018-10-17T17:20:56.620Z,99.90
2018-10-17T17:23:25.229Z,99.90
2018-10-17T17:25:53.945Z,99.90
2018-10-17T17:28:22.700Z,99.90
2018-10-17T17:30:51.652Z,99.90
2018-10-17T17:33:20.609Z,99.90
2018-10-17T17:35:49.518Z,99.90
2018-10-17T17:38:18.362Z,99.90
2018-10-17T17:40:47.320Z,99.90
2018-10-17T17:43:15.967Z,99.90
2018-10-17T17:45:44.770Z,99.90
2018-10-17T17:48:13.347Z,99.90
2018-10-17T17:50:41.952Z,99.90
2018-10-17T17:53:10.574Z,99.90
2018-10-17T17:55:39.257Z,99.90
2018-10-17T17:58:08.007Z,99.90
2018-10-17T18:00:36.684Z,99.90
2018-10-17T18:03:05.660Z,99.90
2018-10-17T18:05:34.278Z,99.90
2018-10-17T18:08:03.043Z,99.90
2018-10-17T18:10:31.735Z,99.90
2018-10-17T18:13:00.334Z,99.90
2018-10-17T18:15:28.934Z,99.90
2018-10-17T18:17:57.549Z,99.90
2018-10-17T18:20:26.202Z,99.90
2018-10-17T18:22:55.027Z,99.90
2018-10-17T18:25:23.799Z,99.90
2018-10-17T18:27:53.536Z,99.90
2018-10-17T18:30:22.340Z,99.90
2018-10-17T18:32:51.243Z,99.90
2018-10-17T18:35:20.111Z,99.90
2018-10-17T18:37:49.018Z,99.90
2018-10-17T18:40:17.918Z,99.90
2018-10-17T18:42:46.573Z,99.90
2018-10-17T18:45:15.159Z,99.90
2018-10-17T18:47:43.897Z,99.90
2018-10-17T18:50:12.867Z,99.90
2018-10-17T18:52:41.514Z,99.90
2018-10-17T18:55:10.358Z,99.90
2018-10-17T18:57:38.990Z,99.90
2018-10-17T19:00:09.401Z,99.90
2018-10-17T19:02:38.153Z,99.90
2018-10-17T19:05:07.569Z,99.90
2018-10-17T19:07:36.190Z,99.90
2018-10-17T19:10:05.104Z,99.90
2018-10-17T19:12:33.827Z,99.90
2018-10-17T19:15:02.530Z,99.90
2018-10-17T19:17:31.078Z,99.90
2018-10-17T19:19:59.712Z,99.90
2018-10-17T19:22:28.423Z,99.90
2018-10-17T19:24:57.182Z,99.90
2018-10-17T19:27:25.833Z,99.90
2018-10-17T19:29:54.732Z,99.90
2018-10-17T19:32:23.469Z,99.90
2018-10-17T19:34:52.251Z,99.90
2018-10-17T19:37:21.432Z,99.90
2018-10-17T19:39:50.373Z,99.90
2018-10-17T19:42:19.636Z,99.90
2018-10-17T19:44:49.511Z,99.90
2018-10-17T19:47:19.688Z,99.90
2018-10-17T19:49:48.580Z,99.90
2018-10-17T19:52:17.306Z,99.90
2018-10-17T19:54:45.990Z,99.90
2018-10-17T19:57:14.636Z,99.90
2018-10-17T19:59:43.344Z,99.90
2018-10-17T20:02:12.119Z,99.90
2018-10-17T20:04:40.644Z,99.90
2018-10-17T20:07:09.851Z,99.90
2018-10-17T20:09:38.616Z,99.90
2018-10-17T20:12:07.469Z,99.90
2018-10-17T20:14:36.099Z,99.90
2018-10-17T20:17:04.881Z,99.90
2018-10-17T20:19:33.470Z,99.90
2018-10-17T20:22:02.080Z,99.90
2018-10-17T20:24:30.686Z,99.90
2018-10-17T20:26:59.547Z,99.90
2018-10-17T20:29:28.473Z,99.90
2018-10-17T20:31:57.107Z,99.90
2018-10-17T20:34:25.734Z,99.90
2018-10-17T20:36:54.634Z,99.90
2018-10-17T20:39:23.635Z,99.90
2018-10-17T20:41:52.547Z,99.90
2018-10-17T20:44:21.437Z,99.90
2018-10-17T20:46:50.514Z,99.90
2018-10-17T20:49:19.583Z,99.90
2018-10-17T20:51:48.874Z,99.90
2018-10-17T20:54:17.849Z,99.90
2018-10-17T20:56:46.702Z,99.90
2018-10-17T20:59:15.319Z,99.90
2018-10-17T21:01:43.993Z,99.90
2018-10-17T21:04:12.614Z,99.90
2018-10-17T21:06:41.550Z,99.90
2018-10-17T21:09:13.668Z,99.90
2018-10-17T21:11:42.855Z,99.90
2018-10-17T21:14:11.922Z,99.90
2018-10-17T21:16:41.489Z,99.90
2018-10-17T21:19:10.210Z,99.90
2018-10-17T21:21:39.223Z,99.90
2018-10-17T21:24:08.014Z,99.90
2018-10-17T21:26:36.637Z,99.90
2018-10-17T21:29:05.953Z,99.90
2018-10-17T21:31:34.582Z,99.90
2018-10-17T21:34:03.238Z,99.90
2018-10-17T21:36:32.017Z,99.90
2018-10-17T21:39:07.330Z,99.90
2018-10-17T21:41:35.987Z,99.90
2018-10-17T21:44:05.096Z,99.90
2018-10-17T21:46:33.567Z,99.90
2018-10-17T21:49:04.114Z,99.90
2018-10-17T21:51:32.710Z,99.90
2018-10-17T21:54:01.362Z,99.90
2018-10-17T21:56:29.965Z,99.90
2018-10-17T21:58:58.553Z,99.90
2018-10-17T22:01:27.170Z,99.90
2018-10-17T22:03:55.765Z,99.90
2018-10-17T22:06:24.553Z,99.90
2018-10-17T22:08:53.621Z,99.90
2018-10-17T22:11:22.475Z,99.90
2018-10-17T22:13:51.200Z,99.90
2018-10-17T22:16:20.068Z,99.90
2018-10-17T22:18:49.088Z,99.90
2018-10-17T22:21:17.889Z,99.90
2018-10-17T22:23:48.909Z,99.90
2018-10-17T22:26:17.793Z,99.90
2018-10-17T22:28:46.494Z,99.90
2018-10-17T22:31:15.110Z,99.90
2018-10-17T22:33:43.706Z,99.90
2018-10-17T22:36:12.370Z,99.90
2018-10-17T22:38:40.964Z,99.90
2018-10-17T22:41:09.930Z,99.90
2018-10-17T22:43:38.626Z,99.90
2018-10-17T22:46:07.271Z,99.90
2018-10-17T22:48:35.990Z,99.90
2018-10-17T22:51:04.586Z,99.90
2018-10-17T22:53:33.185Z,99.90
2018-10-17T22:56:01.851Z,99.90
2018-10-17T22:58:30.393Z,99.90
2018-10-17T23:00:59.050Z,99.90
2018-10-17T23:03:28.851Z,99.90
2018-10-17T23:05:57.519Z,99.90
2018-10-17T23:08:26.135Z,99.90
2018-10-17T23:10:54.873Z,99.90
2018-10-17T23:13:23.674Z,99.90
2018-10-17T23:15:52.486Z,99.90
2018-10-17T23:18:21.414Z,99.90
2018-10-17T23:20:50.281Z,99.90
2018-10-17T23:23:19.102Z,99.90
2018-10-17T23:25:48.158Z,99.90
2018-10-17T23:28:16.994Z,99.90
2018-10-17T23:30:45.620Z,99.90
2018-10-17T23:33:14.289Z,99.90
2018-10-17T23:35:42.894Z,99.90
2018-10-17T23:38:11.724Z,99.90
2018-10-17T23:40:40.329Z,99.90
2018-10-17T23:43:10.081Z,99.90
2018-10-17T23:45:38.934Z,99.90
2018-10-17T23:48:08.380Z,99.90
2018-10-17T23:50:37.413Z,99.90
2018-10-17T23:53:06.322Z,99.90
2018-10-17T23:55:34.910Z,99.90
2018-10-17T23:58:03.539Z,99.90
